Flight Track Log - Related Links

Times and Time Zones

All times are in EDT time to prevent confusion due to time zone crossing. See the ASA224 flight status page for this flight to view local times or setup timezone preferences in your user account.

Time Position Orientation Groundspeed Altitude Reporting Facility
EDT Latitude Longitude Course Direction KTS MPH feet Rate Location/Type
Sat 01:46:28 PM 37.6667 -122.3667 345° North 207 238 1,500  Level Northern Cal TRACON
Sat 01:47:23 PM 37.7167 -122.3833 345° North 243 280 3,600 2,087 Climbing Northern Cal TRACON
Sat 01:48:23 PM 37.7167 -122.4667 270° West 292 336 5,500 2,168 Climbing Northern Cal TRACON
Sat 01:49:22 PM 37.6500 -122.5167 211° Southwest 295 339 7,900 2,286 Climbing Northern Cal TRACON
Sat 01:50:08 PM 37.5944 -122.5228 185° South 299 344 9,500 1,667 Climbing Oakland Center
Sat 01:51:10 PM 37.5064 -122.5297 184° South 313 360 10,900 1,366 Climbing Oakland Center
Sat 01:52:11 PM 37.4039 -122.5394 184° South 360 414 12,300 1,659 Climbing Oakland Center
Sat 01:53:13 PM 37.2958 -122.5464 183° South 383 441 14,300 1,951 Climbing Oakland Center
Sat 01:54:14 PM 37.1836 -122.5539 183° South 401 461 16,300 1,951 Climbing Oakland Center
Sat 01:55:16 PM 37.0447 -122.5661 184° South 415 478 18,300 1,902 Climbing Oakland Center
Sat 01:56:17 PM 36.9242 -122.5692 181° South 430 495 20,200 1,756 Climbing Oakland Center
Sat 01:57:19 PM 36.8064 -122.5342 167° South 431 496 21,900 1,512 Climbing Oakland Center
Sat 01:58:20 PM 36.6869 -122.5008 167° South 438 504 23,300 1,415 Climbing Oakland Center
Sat 01:59:22 PM 36.5789 -122.4319 153° Southeast 445 512 24,800 1,268 Climbing Oakland Center
Sat 02:00:23 PM 36.4944 -122.3272 135° Southeast 428 493 25,900 1,122 Climbing Oakland Center
Sat 02:01:25 PM 36.4064 -122.2169 135° Southeast 443 510 27,100 1,366 Climbing Oakland Center
Sat 02:02:26 PM 36.3172 -122.1072 135° Southeast 450 518 28,700 1,659 Climbing Oakland Center
Sat 02:03:28 PM 36.2136 -121.9786 135° Southeast 444 511 30,500 1,659 Climbing Oakland Center
Sat 02:04:29 PM 36.1289 -121.8739 135° Southeast 435 501 32,100 1,220 Climbing Oakland Center
Sat 02:05:31 PM 36.0464 -121.7744 136° Southeast 424 488 33,000 439 Climbing Oakland Center
Sat 02:06:32 PM 35.9664 -121.6742 135° Southeast 412 474 33,000  Level Oakland Center
Sat 02:07:34 PM 35.8858 -121.5747 135° Southeast 411 473 33,000  Level Oakland Center
Sat 02:08:35 PM 35.8042 -121.4758 136° Southeast 412 474 33,000  Level Oakland Center
Sat 02:09:37 PM 35.7058 -121.3594 136° Southeast 411 473 33,000  Level Oakland Center
Sat 02:10:39 PM 35.6247 -121.2592 135° Southeast 413 475 33,000  Level Oakland Center
Sat 02:11:40 PM 35.5442 -121.1608 135° Southeast 410 472 33,000  Level Oakland Center
Sat 02:12:42 PM 35.4642 -121.0614 135° Southeast 412 474 33,000  Level Oakland Center
Sat 02:13:52 PM 35.3900 -120.9456 128° Southeast 409 471 33,000  Level Los Angeles Center
Sat 02:14:54 PM 35.3042 -120.8167 129° Southeast 408 470 33,000  Level Los Angeles Center
Sat 02:15:56 PM 35.2319 -120.7086 129° Southeast 409 471 33,000  Level Los Angeles Center
Sat 02:16:58 PM 35.1600 -120.6006 129° Southeast 410 472 33,000  Level Los Angeles Center
Sat 02:18:00 PM 35.0892 -120.4933 129° Southeast 405 466 33,000  Level Los Angeles Center
Sat 02:19:03 PM 35.0178 -120.3875 129° Southeast 402 463 33,000  Level Los Angeles Center
Sat 02:20:05 PM 34.9469 -120.2803 129° Southeast 403 464 33,000  Level Los Angeles Center
Sat 02:21:07 PM 34.8747 -120.1739 130° Southeast 404 465 33,000  Level Los Angeles Center
Sat 02:22:09 PM 34.7864 -120.0447 130° Southeast 403 464 33,000  Level Los Angeles Center
Sat 02:23:11 PM 34.7139 -119.9408 130° Southeast 404 465 33,000  Level Los Angeles Center
Sat 02:24:13 PM 34.6417 -119.8364 130° Southeast 405 466 33,000  Level Los Angeles Center
Sat 02:25:15 PM 34.5728 -119.7328 129° Southeast 404 465 33,000  Level Los Angeles Center
Sat 02:26:17 PM 34.4997 -119.6289 130° Southeast 404 465 33,000  Level Los Angeles Center
Sat 02:27:19 PM 34.4264 -119.5250 131° Southeast 405 466 33,000  Level Los Angeles Center
Sat 02:28:21 PM 34.3397 -119.3992 130° Southeast 406 467 33,000  Level Los Angeles Center
Sat 02:29:23 PM 34.2667 -119.2950 130° Southeast 406 467 33,000  Level Los Angeles Center
Sat 02:30:25 PM 34.1939 -119.1892 130° Southeast 408 470 33,000  Level Los Angeles Center
Sat 02:31:28 PM 34.1192 -119.0844 131° Southeast 413 475 33,000  Level Los Angeles Center
Sat 02:32:30 PM 34.0453 -118.9783 130° Southeast 413 475 33,000  Level Los Angeles Center
Sat 02:33:32 PM 33.9533 -118.8494 131° Southeast 422 486 33,000  Level Los Angeles Center
Sat 02:34:34 PM 33.8769 -118.7411 130° Southeast 426 490 33,000  Level Los Angeles Center
Sat 02:35:36 PM 33.7997 -118.6319 130° Southeast 429 494 33,000  Level Los Angeles Center
Sat 02:36:38 PM 33.7219 -118.5250 131° Southeast 430 495 33,000  Level Los Angeles Center
Sat 02:37:40 PM 33.6297 -118.3964 131° Southeast 435 501 33,000  Level Los Angeles Center
Sat 02:38:42 PM 33.5536 -118.2883 130° Southeast 434 499 33,000  Level Los Angeles Center
Sat 02:39:44 PM 33.4781 -118.1814 130° Southeast 428 493 33,000  Level Los Angeles Center
Sat 02:40:46 PM 33.4017 -118.0747 131° Southeast 426 490 33,000  Level Los Angeles Center
Sat 02:41:49 PM 33.3242 -117.9678 131° Southeast 427 491 33,000  Level Los Angeles Center
Sat 02:42:51 PM 33.2461 -117.8611 131° Southeast 427 491 33,000  Level Los Angeles Center
Sat 02:43:53 PM 33.1533 -117.7319 131° Southeast 428 493 33,000  Level Los Angeles Center
Sat 02:44:55 PM 33.0756 -117.6256 131° Southeast 427 491 33,000  Level Los Angeles Center
Sat 02:45:57 PM 32.9967 -117.5183 131° Southeast 429 494 33,000  Level Los Angeles Center
Sat 02:46:59 PM 32.9178 -117.4119 131° Southeast 430 495 33,000  Level Los Angeles Center
Sat 02:48:01 PM 32.8394 -117.3042 131° Southeast 431 496 33,000  Level Los Angeles Center
Sat 02:49:03 PM 32.7542 -117.1947 133° Southeast 437 503 33,000  Level Los Angeles Center
Sat 02:50:05 PM 32.6492 -117.0761 136° Southeast 437 503 33,000  Level Los Angeles Center
Sat 02:51:07 PM 32.5597 -116.9767 137° Southeast 441 507 33,000  Level Los Angeles Center
Sat 02:53:00 PM 32.4006 -116.7808 133° Southeast  Level FlightAware Approximate
Sat 03:00:00 PM 31.8171 -116.0462 133° Southeast  Level FlightAware Approximate
Sat 03:01:00 PM 31.7334 -115.9420 133° Southeast  Level FlightAware Approximate
Sat 03:02:00 PM 31.6496 -115.8380 133° Southeast  Level FlightAware Approximate
Sat 03:03:00 PM 31.5658 -115.7342 133° Southeast  Level FlightAware Approximate
Sat 03:04:00 PM 31.4818 -115.6305 134° Southeast  Level FlightAware Approximate
Sat 03:05:00 PM 31.3978 -115.5271 134° Southeast  Level FlightAware Approximate
Sat 03:06:00 PM 31.3137 -115.4238 134° Southeast  Level FlightAware Approximate
Sat 03:07:00 PM 31.2295 -115.3207 134° Southeast  Level FlightAware Approximate
Sat 03:08:00 PM 31.1452 -115.2178 134° Southeast  Level FlightAware Approximate
Sat 03:09:00 PM 31.0608 -115.1151 134° Southeast  Level FlightAware Approximate
Sat 03:10:00 PM 30.9764 -115.0126 134° Southeast  Level FlightAware Approximate
Sat 03:11:00 PM 30.8918 -114.9103 134° Southeast  Level FlightAware Approximate
Sat 03:12:00 PM 30.8068 -114.8086 134° Southeast  Level FlightAware Approximate
Sat 03:13:00 PM 30.7216 -114.7072 134° Southeast  Level FlightAware Approximate
Sat 03:14:00 PM 30.6364 -114.6059 134° Southeast  Level FlightAware Approximate
Sat 03:15:00 PM 30.5510 -114.5048 134° Southeast  Level FlightAware Approximate
Sat 03:16:00 PM 30.4656 -114.4039 134° Southeast  Level FlightAware Approximate
Sat 03:17:00 PM 30.3801 -114.3032 135° Southeast  Level FlightAware Approximate
Sat 03:18:00 PM 30.2946 -114.2026 135° Southeast  Level FlightAware Approximate
Sat 03:19:00 PM 30.2089 -114.1022 135° Southeast  Level FlightAware Approximate
Sat 03:20:00 PM 30.1232 -114.0021 135° Southeast  Level FlightAware Approximate
Sat 03:21:00 PM 30.0376 -113.9018 134° Southeast  Level FlightAware Approximate
Sat 03:22:00 PM 29.9527 -113.8008 134° Southeast  Level FlightAware Approximate
Sat 03:23:00 PM 29.8678 -113.7000 134° Southeast  Level FlightAware Approximate
Sat 03:24:00 PM 29.7828 -113.5994 135° Southeast  Level FlightAware Approximate
Sat 03:25:00 PM 29.6967 -113.5000 135° Southeast  Level FlightAware Approximate
Sat 03:26:00 PM 29.6106 -113.4008 135° Southeast  Level FlightAware Approximate
Sat 03:27:00 PM 29.5244 -113.3017 135° Southeast  Level FlightAware Approximate
Sat 03:28:00 PM 29.4381 -113.2029 135° Southeast  Level FlightAware Approximate
Sat 03:29:00 PM 29.3518 -113.1041 135° Southeast  Level FlightAware Approximate
Sat 03:30:00 PM 29.2653 -113.0056 135° Southeast  Level FlightAware Approximate
Sat 03:31:00 PM 29.1789 -112.9072 135° Southeast  Level FlightAware Approximate
Sat 03:32:00 PM 29.0923 -112.8090 135° Southeast  Level FlightAware Approximate
Sat 03:33:00 PM 29.0056 -112.7110 135° Southeast  Level FlightAware Approximate
Sat 03:34:00 PM 28.9189 -112.6131 135° Southeast  Level FlightAware Approximate
Sat 03:35:00 PM 28.8321 -112.5154 135° Southeast  Level FlightAware Approximate
Sat 03:36:00 PM 28.7453 -112.4178 135° Southeast  Level FlightAware Approximate
Sat 03:37:00 PM 28.6584 -112.3205 135° Southeast  Level FlightAware Approximate
Sat 03:38:00 PM 28.5714 -112.2232 136° Southeast  Level FlightAware Approximate
Sat 03:39:00 PM 28.4843 -112.1262 136° Southeast  Level FlightAware Approximate
Sat 03:40:00 PM 28.3972 -112.0293 136° Southeast  Level FlightAware Approximate
Sat 03:41:00 PM 28.3100 -111.9325 136° Southeast  Level FlightAware Approximate
Sat 03:42:00 PM 28.2227 -111.8359 136° Southeast  Level FlightAware Approximate
Sat 03:43:00 PM 28.1354 -111.7395 136° Southeast  Level FlightAware Approximate
Sat 03:44:00 PM 28.0480 -111.6432 136° Southeast  Level FlightAware Approximate
Sat 03:45:00 PM 27.9605 -111.5471 136° Southeast  Level FlightAware Approximate
Sat 03:46:00 PM 27.8730 -111.4511 136° Southeast  Level FlightAware Approximate
Sat 03:47:00 PM 27.7854 -111.3553 136° Southeast  Level FlightAware Approximate
Sat 03:48:00 PM 27.6982 -111.2592 136° Southeast  Level FlightAware Approximate
Sat 03:49:00 PM 27.6112 -111.1629 136° Southeast  Level FlightAware Approximate
Sat 03:50:00 PM 27.5241 -111.0667 136° Southeast  Level FlightAware Approximate
Sat 03:51:00 PM 27.4370 -110.9707 136° Southeast  Level FlightAware Approximate
Sat 03:52:00 PM 27.3501 -110.8744 135° Southeast  Level FlightAware Approximate
Sat 03:53:00 PM 27.2631 -110.7783 135° Southeast  Level FlightAware Approximate
Sat 03:54:00 PM 27.1761 -110.6823 136° Southeast  Level FlightAware Approximate
Sat 03:55:00 PM 27.0891 -110.5865 136° Southeast  Level FlightAware Approximate
Sat 03:56:00 PM 27.0020 -110.4908 136° Southeast  Level FlightAware Approximate
Sat 03:57:00 PM 26.9148 -110.3953 136° Southeast  Level FlightAware Approximate
Sat 03:58:00 PM 26.8275 -110.2999 136° Southeast  Level FlightAware Approximate
Sat 03:59:00 PM 26.7402 -110.2047 136° Southeast  Level FlightAware Approximate
Sat 04:00:00 PM 26.6528 -110.1096 136° Southeast  Level FlightAware Approximate
Sat 04:01:00 PM 26.5653 -110.0147 136° Southeast  Level FlightAware Approximate
Sat 04:02:00 PM 26.4778 -109.9199 136° Southeast  Level FlightAware Approximate
Sat 04:03:00 PM 26.3903 -109.8252 136° Southeast  Level FlightAware Approximate
Sat 04:04:00 PM 26.3026 -109.7308 136° Southeast  Level FlightAware Approximate
Sat 04:05:00 PM 26.2149 -109.6364 136° Southeast  Level FlightAware Approximate
Sat 04:06:00 PM 26.1268 -109.5426 137° Southeast  Level FlightAware Approximate
Sat 04:07:00 PM 26.0377 -109.4501 137° Southeast  Level FlightAware Approximate
Sat 04:08:00 PM 25.9485 -109.3577 137° Southeast  Level FlightAware Approximate
Sat 04:09:00 PM 25.8592 -109.2654 137° Southeast  Level FlightAware Approximate
Sat 04:10:00 PM 25.7699 -109.1733 137° Southeast  Level FlightAware Approximate
Sat 04:11:00 PM 25.6805 -109.0814 137° Southeast  Level FlightAware Approximate
Sat 04:12:00 PM 25.5950 -108.9851 133° Southeast  Level FlightAware Approximate
Sat 04:13:00 PM 25.5115 -108.8868 133° Southeast  Level FlightAware Approximate
Sat 04:14:00 PM 25.4279 -108.7885 133° Southeast  Level FlightAware Approximate
Sat 04:15:00 PM 25.3436 -108.6911 135° Southeast  Level FlightAware Approximate
Sat 04:16:00 PM 25.2575 -108.5957 135° Southeast  Level FlightAware Approximate
Sat 04:17:00 PM 25.1714 -108.5005 135° Southeast  Level FlightAware Approximate
Sat 04:18:00 PM 25.0851 -108.4054 135° Southeast  Level FlightAware Approximate
Sat 04:19:00 PM 24.9995 -108.3096 134° Southeast  Level FlightAware Approximate
Sat 04:20:00 PM 24.9143 -108.2135 134° Southeast  Level FlightAware Approximate
Sat 04:21:00 PM 24.8291 -108.1175 134° Southeast  Level FlightAware Approximate
Sat 04:22:00 PM 24.7437 -108.0217 134° Southeast  Level FlightAware Approximate
Sat 04:23:00 PM 24.6584 -107.9260 134° Southeast  Level FlightAware Approximate
Sat 04:24:00 PM 24.5729 -107.8304 134° Southeast  Level FlightAware Approximate
Sat 04:25:00 PM 24.4874 -107.7349 135° Southeast  Level FlightAware Approximate
Sat 04:26:00 PM 24.4018 -107.6396 135° Southeast  Level FlightAware Approximate
Sat 04:27:00 PM 24.3162 -107.5444 135° Southeast  Level FlightAware Approximate
Sat 04:28:00 PM 24.2305 -107.4494 135° Southeast  Level FlightAware Approximate
Sat 04:29:00 PM 24.1448 -107.3544 135° Southeast  Level FlightAware Approximate
Sat 04:30:00 PM 24.0590 -107.2596 135° Southeast  Level FlightAware Approximate
Sat 04:31:00 PM 23.9731 -107.1649 135° Southeast  Level FlightAware Approximate
Sat 04:32:00 PM 23.8872 -107.0704 135° Southeast  Level FlightAware Approximate
Sat 04:33:00 PM 23.8012 -106.9759 135° Southeast  Level FlightAware Approximate
Sat 04:34:00 PM 23.7152 -106.8816 135° Southeast  Level FlightAware Approximate
Sat 04:35:00 PM 23.6291 -106.7875 135° Southeast  Level FlightAware Approximate
Sat 04:36:00 PM 23.5430 -106.6934 135° Southeast  Level FlightAware Approximate
Sat 04:37:00 PM 23.4568 -106.5994 135° Southeast  Level FlightAware Approximate
Sat 04:38:00 PM 23.3705 -106.5056 135° Southeast  Level FlightAware Approximate
Sat 04:39:00 PM 23.2842 -106.4119 135° Southeast  Level FlightAware Approximate
Sat 04:40:00 PM 23.1978 -106.3184 135° Southeast  Level FlightAware Approximate
Sat 04:41:00 PM 23.0994 -106.2449 158° South  Level FlightAware Approximate
Sat 04:42:00 PM 22.9860 -106.1962 158° South  Level FlightAware Approximate
Sat 04:43:00 PM 22.8727 -106.1476 158° South  Level FlightAware Approximate
Sat 04:44:00 PM 22.7593 -106.0991 158° South  Level FlightAware Approximate
Sat 04:45:00 PM 22.6447 -106.0575 159° South  Level FlightAware Approximate
Sat 04:46:00 PM 22.5310 -106.0101 159° South  Level FlightAware Approximate
Sat 04:47:00 PM 22.4160 -105.9664 158° South  Level FlightAware Approximate
Sat 04:48:00 PM 22.3033 -105.9163 158° South  Level FlightAware Approximate
Sat 04:49:00 PM 22.1941 -105.8614 160° South  Level FlightAware Approximate
Sat 04:50:00 PM 22.0795 -105.8165 160° South  Level FlightAware Approximate
Sat 04:51:00 PM 21.9649 -105.7717 160° South  Level FlightAware Approximate
Sat 04:52:00 PM 21.8504 -105.7269 160° South  Level FlightAware Approximate
Sat 04:53:00 PM 21.7359 -105.6818 160° South  Level FlightAware Approximate
Sat 04:54:00 PM 21.6214 -105.6368 160° South  Level FlightAware Approximate
Sat 04:55:00 PM 21.5070 -105.5919 160° South  Level FlightAware Approximate
Sat 04:56:00 PM 21.3926 -105.5467 157° South  Level FlightAware Approximate
Sat 04:57:00 PM 21.2800 -105.4967 157° South  Level FlightAware Approximate
Sat 04:58:00 PM 21.1667 -105.4486 159° South  Level FlightAware Approximate
Sat 04:59:00 PM 21.0531 -105.4013 159° South  Level FlightAware Approximate
Sat 05:00:00 PM 20.9389 -105.3556 160° South  Level FlightAware Approximate
Sat 05:01:00 PM 20.8259 -105.3092 137° Southeast  Level FlightAware Approximate
Sat 05:02:00 PM 20.7112 -105.2723 155° Southeast  Level FlightAware Approximate
Sat 05:03:00 PM 20.6801 -105.2542 North  Level Estimated
Sat 05:04:00 PM 20.6801 -105.2542 North  Level Estimated
Sat 05:05:00 PM 20.6801 -105.2542 North  Level Estimated
Sat 05:06:00 PM 20.6801 -105.2542 North  Level Estimated
Sat 05:07:00 PM 20.6801 -105.2542 North  Level Estimated
Sat 05:08:00 PM 20.6801 -105.2542 North  Level Estimated
Sat 05:09:00 PM 20.6801 -105.2542 North  Level Estimated
Sat 05:10:00 PM 20.6801 -105.2542 North  Level Estimated
Sat 05:11:00 PM 20.6801 -105.2542 North  Level Estimated
Sat 05:12:00 PM 20.6801 -105.2542 North  Level Estimated

Login

Don't have an account? Register now (free) for customized features, flight alerts, and more!